createdAt,value
2023-05-04T00:01:55.793Z,67.51
2023-05-04T00:04:43.029Z,67.50
2023-05-04T00:07:29.180Z,67.60
2023-05-04T00:10:18.198Z,67.49
2023-05-04T00:13:04.295Z,67.57
2023-05-04T00:15:56.160Z,67.75
2023-05-04T00:18:45.199Z,67.61
2023-05-04T00:21:36.010Z,67.05
2023-05-04T00:24:28.629Z,67.28
2023-05-04T00:27:15.266Z,68.08
2023-05-04T00:30:01.732Z,67.44
2023-05-04T00:32:48.369Z,68.06
2023-05-04T00:35:34.545Z,68.15
2023-05-04T00:38:21.029Z,67.73
2023-05-04T00:41:12.120Z,67.32
2023-05-04T00:44:00.048Z,67.54
2023-05-04T00:46:46.980Z,67.41
2023-05-04T00:55:43.797Z,67.34
2023-05-04T00:58:35.518Z,67.17
2023-05-04T01:01:28.220Z,66.74
2023-05-04T01:04:37.256Z,67.29
2023-05-04T01:07:56.986Z,67.26
2023-05-04T01:11:06.367Z,67.13
2023-05-04T01:13:54.189Z,67.09
2023-05-04T01:16:56.878Z,66.85
2023-05-04T01:20:07.678Z,66.93
2023-05-04T01:22:57.497Z,67.02
2023-05-04T01:26:06.786Z,66.98
2023-05-04T01:29:57.883Z,67.31
2023-05-04T01:32:46.299Z,67.17
2023-05-04T01:35:32.475Z,67.04
2023-05-04T01:38:26.304Z,66.86
2023-05-04T01:41:25.215Z,66.81
2023-05-04T01:44:38.329Z,66.66
2023-05-04T01:47:36.251Z,67.15
2023-05-04T01:50:35.732Z,67.07
2023-05-04T01:53:28.263Z,67.20
2023-05-04T01:56:21.781Z,67.20
2023-05-04T01:59:21.939Z,66.90
2023-05-04T02:02:32.709Z,66.93
2023-05-04T02:05:45.554Z,67.09
2023-05-04T02:09:06.225Z,67.28
2023-05-04T02:12:10.163Z,66.97
2023-05-04T02:15:05.195Z,66.89
2023-05-04T02:18:01.525Z,67.42
2023-05-04T02:20:52.493Z,67.56
2023-05-04T02:23:40.172Z,67.07
2023-05-04T02:26:29.614Z,67.04
2023-05-04T02:29:19.701Z,67.35
2023-05-04T02:32:14.724Z,66.77
2023-05-04T02:35:16.650Z,67.82
2023-05-04T02:38:15.357Z,66.96
2023-05-04T02:41:08.315Z,68.46
2023-05-04T02:44:01.991Z,68.90
2023-05-04T02:47:06.334Z,68.48
2023-05-04T02:49:58.174Z,68.45
2023-05-04T02:52:47.210Z,68.58
2023-05-04T02:55:55.059Z,68.31
2023-05-04T02:59:08.059Z,68.36
2023-05-04T03:02:03.205Z,68.17
2023-05-04T03:04:52.331Z,67.91
2023-05-04T03:07:47.292Z,67.91
2023-05-04T03:13:57.033Z,67.89
2023-05-04T03:16:59.972Z,67.85
2023-05-04T03:19:48.273Z,67.62
2023-05-04T03:22:42.015Z,67.84
2023-05-04T03:25:31.049Z,67.65
2023-05-04T03:28:35.085Z,67.61
2023-05-04T03:31:29.229Z,67.27
2023-05-04T03:34:32.209Z,67.19
2023-05-04T03:37:34.810Z,67.28
2023-05-04T03:40:25.521Z,67.20
2023-05-04T03:43:22.723Z,66.98
2023-05-04T03:46:13.823Z,66.95
2023-05-04T03:49:00.636Z,66.83
2023-05-04T03:51:59.392Z,66.99
2023-05-04T03:54:52.873Z,66.80
2023-05-04T03:57:45.673Z,66.84
2023-05-04T04:00:42.360Z,66.67
2023-05-04T04:03:36.508Z,66.64
2023-05-04T04:06:30.390Z,66.81
2023-05-04T04:09:17.123Z,66.70
2023-05-04T04:12:05.783Z,66.62
2023-05-04T04:15:02.156Z,66.84
2023-05-04T04:18:03.418Z,66.76
2023-05-04T04:20:51.419Z,66.50
2023-05-04T04:23:44.999Z,66.51
2023-05-04T04:26:33.663Z,66.45
2023-05-04T04:29:22.017Z,66.27
2023-05-04T04:32:18.826Z,66.24
2023-05-04T04:35:14.291Z,65.99
2023-05-04T04:38:20.336Z,65.67
2023-05-04T04:41:10.255Z,65.34
2023-05-04T04:44:10.002Z,65.20
2023-05-04T04:46:59.173Z,64.88
2023-05-04T04:49:46.683Z,64.86
2023-05-04T04:52:33.634Z,64.49
2023-05-04T04:55:27.302Z,64.58
2023-05-04T04:58:16.633Z,64.34
2023-05-04T05:01:28.926Z,64.16
2023-05-04T05:04:28.532Z,63.64
2023-05-04T05:07:37.446Z,63.45
2023-05-04T05:10:43.727Z,63.06
2023-05-04T05:13:43.203Z,63.01
2023-05-04T05:16:33.550Z,62.13
2023-05-04T05:19:21.149Z,61.43
2023-05-04T05:22:08.907Z,61.94
2023-05-04T05:24:59.221Z,61.55
2023-05-04T05:27:46.397Z,61.60
2023-05-04T05:30:33.276Z,60.76
2023-05-04T05:33:21.311Z,60.73
2023-05-04T05:36:08.780Z,60.20
2023-05-04T05:39:05.502Z,60.22
2023-05-04T05:42:04.822Z,59.70
2023-05-04T05:45:04.884Z,58.65
2023-05-04T05:47:57.903Z,58.18
2023-05-04T05:50:50.000Z,57.74
2023-05-04T05:53:46.285Z,57.54
2023-05-04T05:56:37.834Z,57.87
2023-05-04T05:59:26.351Z,57.22
2023-05-04T06:02:16.678Z,56.73
2023-05-04T06:05:08.367Z,56.55
2023-05-04T06:08:08.271Z,56.01
2023-05-04T06:10:57.460Z,56.47
2023-05-04T06:13:57.705Z,55.47
2023-05-04T06:16:44.319Z,55.38
2023-05-04T06:22:59.706Z,54.64
2023-05-04T06:25:48.662Z,54.95
2023-05-04T06:28:41.050Z,54.77
2023-05-04T06:31:28.791Z,54.67
2023-05-04T06:34:19.672Z,53.93
2023-05-04T06:37:07.781Z,53.41
2023-05-04T06:39:54.973Z,53.87
2023-05-04T06:42:42.912Z,53.74
2023-05-04T06:45:29.658Z,53.18
2023-05-04T06:48:15.671Z,53.00
2023-05-04T06:51:05.112Z,52.71
2023-05-04T06:53:51.735Z,52.34
2023-05-04T06:56:39.832Z,52.44
2023-05-04T06:59:26.326Z,52.30
2023-05-04T07:02:12.336Z,51.80
2023-05-04T07:04:58.842Z,51.50
2023-05-04T07:07:45.740Z,51.04
2023-05-04T07:10:32.949Z,51.06
2023-05-04T07:13:20.544Z,50.97
2023-05-04T07:16:09.288Z,51.19
2023-05-04T07:18:55.725Z,50.74
2023-05-04T07:21:43.907Z,50.36
2023-05-04T07:24:31.067Z,50.45
2023-05-04T07:27:17.495Z,50.36
2023-05-04T07:30:08.561Z,50.82
2023-05-04T07:33:00.146Z,50.64
2023-05-04T07:35:50.312Z,50.70
2023-05-04T07:38:37.094Z,50.83
2023-05-04T07:41:24.149Z,51.04
2023-05-04T07:44:11.754Z,50.72
2023-05-04T07:46:59.541Z,50.85
2023-05-04T07:49:49.109Z,50.54
2023-05-04T07:52:35.858Z,50.66
2023-05-04T07:55:22.145Z,50.76
2023-05-04T07:58:10.160Z,50.64
2023-05-04T08:00:59.950Z,50.79
2023-05-04T08:03:48.659Z,50.40
2023-05-04T08:06:42.827Z,50.83
2023-05-04T08:09:31.820Z,50.35
2023-05-04T08:12:21.452Z,50.52
2023-05-04T08:15:08.669Z,50.26
2023-05-04T08:17:55.127Z,50.24
2023-05-04T08:20:42.240Z,50.38
2023-05-04T08:23:28.632Z,49.91
2023-05-04T08:26:14.988Z,49.98
2023-05-04T08:29:08.424Z,49.89
2023-05-04T08:31:56.350Z,49.27
2023-05-04T08:34:42.615Z,49.31
2023-05-04T08:37:29.840Z,49.17
2023-05-04T08:40:16.019Z,48.67
2023-05-04T08:43:04.441Z,49.13
2023-05-04T08:45:51.203Z,48.52
2023-05-04T08:48:37.883Z,48.42
2023-05-04T08:51:24.527Z,48.90
2023-05-04T08:54:12.184Z,48.02
2023-05-04T08:56:58.987Z,48.21
2023-05-04T08:59:49.830Z,48.30
2023-05-04T09:02:36.820Z,48.04
2023-05-04T09:05:23.825Z,47.73
2023-05-04T09:08:13.167Z,47.55
2023-05-04T09:11:05.279Z,47.60
2023-05-04T09:13:54.473Z,47.48
2023-05-04T09:16:41.091Z,47.42
2023-05-04T09:19:33.540Z,47.08
2023-05-04T09:22:21.440Z,46.94
2023-05-04T09:25:10.086Z,46.87
2023-05-04T09:27:59.114Z,47.07
2023-05-04T09:30:49.293Z,46.90
2023-05-04T09:33:37.281Z,47.43
2023-05-04T09:36:25.170Z,47.45
2023-05-04T09:39:16.034Z,48.03
2023-05-04T09:42:02.098Z,47.34
2023-05-04T09:45:06.412Z,47.45
2023-05-04T09:47:57.790Z,47.10
2023-05-04T09:50:56.272Z,46.78
2023-05-04T09:53:47.372Z,46.33
2023-05-04T09:56:37.652Z,46.53
2023-05-04T09:59:24.161Z,46.94
2023-05-04T10:02:22.532Z,46.83
2023-05-04T10:05:09.695Z,47.01
2023-05-04T10:07:59.657Z,46.94
2023-05-04T10:10:45.791Z,46.34
2023-05-04T10:13:32.564Z,45.85
2023-05-04T10:16:38.646Z,45.51
2023-05-04T10:19:38.364Z,45.74
2023-05-04T10:22:36.720Z,46.22
2023-05-04T10:25:46.946Z,46.11
2023-05-04T10:29:05.425Z,45.47
2023-05-04T10:31:56.227Z,45.54
2023-05-04T10:34:42.651Z,45.41
2023-05-04T10:37:31.754Z,46.09
2023-05-04T10:40:20.971Z,46.42
2023-05-04T10:43:08.616Z,46.31
2023-05-04T10:45:54.764Z,46.71
2023-05-04T10:48:41.336Z,46.44
2023-05-04T10:51:35.616Z,46.21
2023-05-04T10:54:29.887Z,47.10
2023-05-04T10:57:17.635Z,46.79
2023-05-04T11:00:04.547Z,46.43
2023-05-04T11:02:52.701Z,47.48
2023-05-04T11:05:47.433Z,47.10
2023-05-04T11:08:33.852Z,46.97
2023-05-04T11:11:21.951Z,46.89
2023-05-04T11:14:07.809Z,46.83
2023-05-04T11:17:27.390Z,46.72
2023-05-04T11:20:23.058Z,46.64
2023-05-04T11:23:10.547Z,46.52
2023-05-04T11:25:57.047Z,47.04
2023-05-04T11:28:44.340Z,47.49
2023-05-04T11:31:36.350Z,47.69
2023-05-04T11:34:28.272Z,47.72
2023-05-04T11:37:14.497Z,47.52
2023-05-04T11:40:00.597Z,47.05
2023-05-04T11:42:48.466Z,46.49
2023-05-04T11:45:36.613Z,46.60
2023-05-04T11:48:28.153Z,46.88
2023-05-04T11:51:20.167Z,46.76
2023-05-04T11:54:07.560Z,46.90
2023-05-04T11:56:53.605Z,47.27
2023-05-04T11:59:49.085Z,47.35
2023-05-04T12:02:36.013Z,47.01
2023-05-04T12:05:28.264Z,47.65
2023-05-04T12:08:35.105Z,47.84
2023-05-04T12:11:29.671Z,47.04
2023-05-04T12:14:20.841Z,46.96
2023-05-04T12:17:07.105Z,46.47
2023-05-04T12:20:01.516Z,46.31
2023-05-04T12:22:49.174Z,46.11
2023-05-04T12:25:47.370Z,46.12
2023-05-04T12:28:42.124Z,46.16
2023-05-04T12:31:33.283Z,46.56
2023-05-04T12:34:21.665Z,46.69
2023-05-04T12:37:08.114Z,47.21
2023-05-04T12:39:54.455Z,47.80
2023-05-04T12:42:42.503Z,47.54
2023-05-04T12:45:30.889Z,47.72
2023-05-04T12:48:17.276Z,46.90
2023-05-04T12:51:07.301Z,47.01
2023-05-04T12:53:53.347Z,47.34
2023-05-04T12:56:49.636Z,47.32
2023-05-04T12:59:45.344Z,47.97
2023-05-04T13:02:43.575Z,47.90
2023-05-04T13:05:32.887Z,48.03
2023-05-04T13:08:20.725Z,47.70
2023-05-04T13:11:10.801Z,48.09
2023-05-04T13:14:00.377Z,48.24
2023-05-04T13:16:51.171Z,47.68
2023-05-04T13:19:50.683Z,47.61
2023-05-04T13:23:08.770Z,47.67
2023-05-04T13:25:56.426Z,48.10
2023-05-04T13:28:44.276Z,47.97
2023-05-04T13:31:31.829Z,48.44
2023-05-04T13:34:18.327Z,47.75
2023-05-04T13:37:07.692Z,47.70
2023-05-04T13:40:01.496Z,47.95
2023-05-04T13:42:56.509Z,47.61
2023-05-04T13:45:42.737Z,48.43
2023-05-04T13:48:29.582Z,48.11
2023-05-04T13:51:16.050Z,48.29
2023-05-04T13:54:03.013Z,48.25
2023-05-04T13:56:50.549Z,48.23
2023-05-04T13:59:37.183Z,47.87
2023-05-04T14:02:23.926Z,47.98
2023-05-04T14:05:16.493Z,47.62
2023-05-04T14:08:04.165Z,47.31
2023-05-04T14:10:53.979Z,46.78
2023-05-04T14:13:40.404Z,46.89
2023-05-04T14:16:29.541Z,46.49
2023-05-04T14:19:17.832Z,46.58
2023-05-04T14:22:05.493Z,46.45
2023-05-04T14:24:52.941Z,46.55
2023-05-04T14:27:39.385Z,46.35
2023-05-04T14:30:29.783Z,46.38
2023-05-04T14:33:25.099Z,46.33
2023-05-04T14:36:27.684Z,46.04
2023-05-04T14:39:21.148Z,46.10
2023-05-04T14:42:07.576Z,45.60
2023-05-04T14:44:55.966Z,45.41
2023-05-04T14:47:46.055Z,45.58
2023-05-04T14:50:34.662Z,45.51
2023-05-04T14:53:52.283Z,45.66
2023-05-04T14:57:10.580Z,45.66
2023-05-04T15:00:39.261Z,46.19
2023-05-04T15:03:34.895Z,46.85
2023-05-04T15:06:25.939Z,47.17
2023-05-04T15:09:26.621Z,47.35
2023-05-04T15:12:26.493Z,47.32
2023-05-04T15:15:12.812Z,46.99
2023-05-04T15:17:59.055Z,46.75
2023-05-04T15:20:46.239Z,46.24
2023-05-04T15:23:33.766Z,45.94
2023-05-04T15:26:20.155Z,45.65
2023-05-04T15:29:09.455Z,45.96
2023-05-04T15:31:58.234Z,45.83
2023-05-04T15:34:50.726Z,46.05
2023-05-04T15:37:46.632Z,45.90
2023-05-04T15:40:37.474Z,45.92
2023-05-04T15:43:32.422Z,45.99
2023-05-04T15:46:21.993Z,45.66
2023-05-04T15:49:17.216Z,45.91
2023-05-04T15:52:07.153Z,45.84
2023-05-04T15:54:56.443Z,45.97
2023-05-04T15:57:53.065Z,46.00
2023-05-04T16:00:45.141Z,45.97
2023-05-04T16:03:33.890Z,45.86
2023-05-04T16:06:24.242Z,46.07
2023-05-04T16:09:13.212Z,46.24
2023-05-04T16:12:12.337Z,46.12
2023-05-04T16:15:02.851Z,46.11
2023-05-04T16:17:56.941Z,46.23
2023-05-04T16:20:52.525Z,46.31
2023-05-04T16:23:44.125Z,46.58
2023-05-04T16:26:43.344Z,46.29
2023-05-04T16:29:35.189Z,46.60
2023-05-04T16:32:32.028Z,46.54
2023-05-04T16:35:32.564Z,46.70
2023-05-04T16:38:20.087Z,46.83
2023-05-04T16:41:06.995Z,47.00
2023-05-04T16:43:53.752Z,47.12
2023-05-04T16:46:41.307Z,47.20
2023-05-04T16:49:28.860Z,47.67
2023-05-04T16:52:21.093Z,47.50
2023-05-04T16:55:12.890Z,47.73
2023-05-04T16:58:05.423Z,47.75
2023-05-04T17:00:54.894Z,48.04
2023-05-04T17:03:45.093Z,48.24
2023-05-04T17:06:31.752Z,48.40
2023-05-04T17:09:18.168Z,48.59
2023-05-04T17:12:06.008Z,48.99
2023-05-04T17:14:52.886Z,48.80
2023-05-04T17:17:38.677Z,48.99
2023-05-04T17:20:28.830Z,48.99
2023-05-04T17:23:17.707Z,49.15
2023-05-04T17:26:06.328Z,49.39
2023-05-04T17:29:04.682Z,49.27
2023-05-04T17:31:55.654Z,49.69
2023-05-04T17:34:43.302Z,49.49
2023-05-04T17:37:31.228Z,49.68
2023-05-04T17:40:18.633Z,50.13
2023-05-04T17:43:06.895Z,49.76
2023-05-04T17:45:55.821Z,49.91
2023-05-04T17:48:45.776Z,50.01
2023-05-04T17:51:34.687Z,49.95
2023-05-04T17:54:24.024Z,49.90
2023-05-04T17:57:12.536Z,50.19
2023-05-04T18:00:01.942Z,50.25
2023-05-04T18:02:55.263Z,50.28
2023-05-04T18:05:48.674Z,50.66
2023-05-04T18:08:36.573Z,50.89
2023-05-04T18:11:24.148Z,50.81
2023-05-04T18:14:10.912Z,50.76
2023-05-04T18:16:57.707Z,51.19
2023-05-04T18:19:46.246Z,51.78
2023-05-04T18:22:33.551Z,52.09
2023-05-04T18:25:22.701Z,52.54
2023-05-04T18:28:11.961Z,52.78
2023-05-04T18:31:02.965Z,52.66
2023-05-04T18:33:53.272Z,53.06
2023-05-04T18:36:41.265Z,53.31
2023-05-04T18:39:30.064Z,53.80
2023-05-04T18:42:18.955Z,53.68
2023-05-04T18:45:12.462Z,53.77
2023-05-04T18:48:00.240Z,53.99
2023-05-04T18:50:59.022Z,54.13
2023-05-04T18:53:48.712Z,54.25
2023-05-04T18:56:39.745Z,54.36
2023-05-04T18:59:27.316Z,54.36
2023-05-04T19:02:18.034Z,54.23
2023-05-04T19:05:06.312Z,54.73
2023-05-04T19:07:55.652Z,55.09
2023-05-04T19:10:43.014Z,54.79
2023-05-04T19:13:34.115Z,54.98
2023-05-04T19:16:23.742Z,54.90
2023-05-04T19:19:12.296Z,55.15
2023-05-04T19:21:59.024Z,55.24
2023-05-04T19:24:50.141Z,55.19
2023-05-04T19:27:37.258Z,55.57
2023-05-04T19:30:25.726Z,55.78
2023-05-04T19:33:13.119Z,55.92
2023-05-04T19:36:03.673Z,55.82
2023-05-04T19:38:55.226Z,56.39
2023-05-04T19:41:44.059Z,56.31
2023-05-04T19:44:31.391Z,56.43
2023-05-04T19:47:18.621Z,56.71
2023-05-04T19:50:06.780Z,56.76
2023-05-04T19:52:53.887Z,56.59
2023-05-04T19:55:39.975Z,56.87
2023-05-04T19:58:35.304Z,57.18
2023-05-04T20:01:39.603Z,57.46
2023-05-04T20:04:45.386Z,57.64
2023-05-04T20:07:33.794Z,57.98
2023-05-04T20:10:22.364Z,58.10
2023-05-04T20:13:09.405Z,58.54
2023-05-04T20:15:57.052Z,58.66
2023-05-04T20:18:44.831Z,59.50
2023-05-04T20:21:32.366Z,60.22
2023-05-04T20:24:20.280Z,60.00
2023-05-04T20:27:07.728Z,59.87
2023-05-04T20:29:54.730Z,60.14
2023-05-04T20:32:41.775Z,60.50
2023-05-04T20:35:29.790Z,60.45
2023-05-04T20:38:18.026Z,60.73
2023-05-04T20:41:10.088Z,60.98
2023-05-04T20:43:56.781Z,61.11
2023-05-04T20:46:45.784Z,61.39
2023-05-04T20:49:33.135Z,61.46
2023-05-04T20:52:22.122Z,61.45
2023-05-04T20:55:08.677Z,61.66
2023-05-04T20:57:55.948Z,61.56
2023-05-04T21:00:44.155Z,61.78
2023-05-04T21:03:31.541Z,61.87
2023-05-04T21:06:18.518Z,62.02
2023-05-04T21:09:06.117Z,61.74
2023-05-04T21:11:53.296Z,61.86
2023-05-04T21:14:40.952Z,61.79
2023-05-04T21:17:28.301Z,61.92
2023-05-04T21:20:16.072Z,61.92
2023-05-04T21:23:03.778Z,62.15
2023-05-04T21:25:54.366Z,62.10
2023-05-04T21:28:44.775Z,62.23
2023-05-04T21:31:37.073Z,62.19
2023-05-04T21:34:25.197Z,62.63
2023-05-04T21:37:15.362Z,62.48
2023-05-04T21:40:03.607Z,62.80
2023-05-04T21:42:52.519Z,62.66
2023-05-04T21:45:40.932Z,62.74
2023-05-04T21:48:30.480Z,62.78
2023-05-04T21:51:20.865Z,63.01
2023-05-04T21:54:09.310Z,63.19
2023-05-04T21:56:57.621Z,63.44
2023-05-04T21:59:51.062Z,63.34
2023-05-04T22:02:40.083Z,63.34
2023-05-04T22:05:28.350Z,63.77
2023-05-04T22:08:16.765Z,63.82
2023-05-04T22:11:07.153Z,64.64
2023-05-04T22:13:56.290Z,64.81
2023-05-04T22:16:44.612Z,65.29
2023-05-04T22:19:31.842Z,65.28
2023-05-04T22:22:19.509Z,65.24
2023-05-04T22:25:06.596Z,65.44
2023-05-04T22:27:53.806Z,65.53
2023-05-04T22:30:40.647Z,65.63
2023-05-04T22:33:27.213Z,65.77
2023-05-04T22:36:13.958Z,65.71
2023-05-04T22:39:01.436Z,65.68
2023-05-04T22:41:47.926Z,65.83
2023-05-04T22:44:35.126Z,65.69
2023-05-04T22:47:22.741Z,65.79
2023-05-04T22:50:10.897Z,65.33
2023-05-04T22:52:58.430Z,65.09
2023-05-04T22:55:45.489Z,65.02
2023-05-04T22:58:32.038Z,64.89
2023-05-04T23:01:19.434Z,65.11
2023-05-04T23:04:06.449Z,65.38
2023-05-04T23:06:57.576Z,65.92
2023-05-04T23:09:46.118Z,66.71
2023-05-04T23:12:33.454Z,67.37
2023-05-04T23:15:20.254Z,68.15
2023-05-04T23:18:07.154Z,68.52
2023-05-04T23:20:53.778Z,69.73
2023-05-04T23:23:41.658Z,70.12
2023-05-04T23:26:28.459Z,70.76
2023-05-04T23:29:15.483Z,71.37
2023-05-04T23:32:02.726Z,71.71
2023-05-04T23:34:50.380Z,72.24
2023-05-04T23:37:36.523Z,72.86
2023-05-04T23:40:24.563Z,73.54
2023-05-04T23:43:11.116Z,74.21
2023-05-04T23:46:02.993Z,75.00
2023-05-04T23:48:50.214Z,75.90
2023-05-04T23:51:36.807Z,75.92
2023-05-04T23:54:23.133Z,76.43
2023-05-04T23:57:09.338Z,76.89
2023-05-04T23:59:55.629Z,77.00
